createdAt,value
2023-05-03T00:00:21.057Z,15.57
2023-05-03T00:02:47.868Z,6.33
2023-05-03T00:05:15.146Z,6.30
2023-05-03T00:07:43.950Z,6.47
2023-05-03T00:10:13.174Z,6.27
2023-05-03T00:12:41.113Z,6.70
2023-05-03T00:15:09.103Z,5.63
2023-05-03T00:17:36.802Z,5.03
2023-05-03T00:20:05.256Z,5.67
2023-05-03T00:22:32.416Z,5.87
2023-05-03T00:25:00.268Z,5.97
2023-05-03T00:27:27.006Z,5.83
2023-05-03T00:29:53.778Z,5.90
2023-05-03T00:32:22.966Z,7.63
2023-05-03T00:34:54.536Z,10.17
2023-05-03T00:37:21.749Z,20.20
2023-05-03T00:39:48.877Z,7.53
2023-05-03T00:42:15.686Z,7.50
2023-05-03T00:44:42.524Z,8.90
2023-05-03T00:47:10.050Z,8.73
2023-05-03T00:49:37.234Z,6.40
2023-05-03T00:52:03.933Z,6.40
2023-05-03T00:54:33.648Z,7.80
2023-05-03T00:57:01.801Z,7.27
2023-05-03T00:59:29.019Z,7.47
2023-05-03T01:01:56.115Z,7.43
2023-05-03T01:04:23.686Z,6.93
2023-05-03T01:07:07.158Z,10.30
2023-05-03T01:09:48.356Z,7.27
2023-05-03T01:12:30.669Z,10.47
2023-05-03T01:15:07.517Z,7.60
2023-05-03T01:17:40.004Z,8.63
2023-05-03T01:20:10.955Z,8.80
2023-05-03T01:22:50.683Z,8.70
2023-05-03T01:25:17.497Z,8.93
2023-05-03T01:27:44.338Z,8.27
2023-05-03T01:30:12.582Z,7.60
2023-05-03T01:33:01.125Z,8.27
2023-05-03T01:35:42.184Z,13.00
2023-05-03T01:38:09.945Z,9.00
2023-05-03T01:40:43.190Z,9.03
2023-05-03T01:43:12.495Z,9.53
2023-05-03T01:45:40.078Z,10.37
2023-05-03T01:48:12.029Z,8.50
2023-05-03T01:50:38.836Z,9.37
2023-05-03T01:53:05.672Z,9.53
2023-05-03T01:55:32.445Z,10.03
2023-05-03T01:57:59.539Z,9.63
2023-05-03T02:00:26.413Z,22.03
2023-05-03T02:02:53.481Z,11.40
2023-05-03T02:05:20.485Z,9.97
2023-05-03T02:07:47.199Z,11.23
2023-05-03T02:10:15.045Z,13.87
2023-05-03T02:12:42.828Z,15.03
2023-05-03T02:15:11.079Z,16.00
2023-05-03T02:17:38.377Z,10.17
2023-05-03T02:20:06.179Z,9.30
2023-05-03T02:22:33.164Z,11.00
2023-05-03T02:24:59.897Z,10.37
2023-05-03T02:27:26.618Z,8.40
2023-05-03T02:29:53.666Z,17.27
2023-05-03T02:32:20.975Z,10.73
2023-05-03T02:34:49.354Z,8.57
2023-05-03T02:37:16.687Z,9.63
2023-05-03T02:39:43.385Z,9.30
2023-05-03T02:42:10.119Z,12.25
2023-05-03T02:44:36.865Z,10.20
2023-05-03T02:47:03.695Z,8.95
2023-05-03T02:49:30.719Z,10.03
2023-05-03T02:51:58.038Z,11.35
2023-05-03T02:54:24.890Z,9.47
2023-05-03T02:56:51.661Z,10.02
2023-05-03T02:59:18.411Z,10.13
2023-05-03T03:01:46.694Z,14.95
2023-05-03T03:04:13.595Z,13.93
2023-05-03T03:06:40.379Z,14.70
2023-05-03T03:09:07.339Z,10.05
2023-05-03T03:11:34.540Z,14.05
2023-05-03T03:14:01.275Z,12.70
2023-05-03T03:16:28.092Z,11.95
2023-05-03T03:18:55.155Z,11.13
2023-05-03T03:21:21.918Z,12.20
2023-05-03T03:23:48.615Z,13.05
2023-05-03T03:26:15.348Z,11.50
2023-05-03T03:28:42.030Z,12.30
2023-05-03T03:31:08.774Z,12.30
2023-05-03T03:33:35.610Z,12.65
2023-05-03T03:36:02.324Z,11.77
2023-05-03T03:38:29.275Z,13.73
2023-05-03T03:40:56.041Z,12.70
2023-05-03T03:43:22.782Z,12.20
2023-05-03T03:45:49.527Z,12.07
2023-05-03T03:48:16.382Z,10.20
2023-05-03T03:50:43.495Z,12.93
2023-05-03T03:53:11.180Z,13.30
2023-05-03T03:55:38.705Z,13.65
2023-05-03T03:58:06.077Z,11.73
2023-05-03T04:00:34.695Z,14.80
2023-05-03T04:03:03.536Z,13.23
2023-05-03T04:05:31.487Z,10.32
2023-05-03T04:07:58.590Z,15.52
2023-05-03T04:10:25.381Z,16.65
2023-05-03T04:12:52.121Z,13.35
2023-05-03T04:15:19.000Z,16.80
2023-05-03T04:17:45.843Z,15.70
2023-05-03T04:20:13.782Z,13.95
2023-05-03T04:22:40.952Z,24.70
2023-05-03T04:25:11.538Z,15.07
2023-05-03T04:27:38.273Z,13.73
2023-05-03T04:30:06.428Z,13.98
2023-05-03T04:32:37.405Z,13.38
2023-05-03T04:35:09.470Z,13.73
2023-05-03T04:37:41.925Z,12.57
2023-05-03T04:40:09.734Z,10.40
2023-05-03T04:42:36.561Z,14.40
2023-05-03T04:45:04.260Z,12.60
2023-05-03T04:47:31.154Z,13.88
2023-05-03T04:49:58.178Z,11.30
2023-05-03T04:52:26.676Z,11.85
2023-05-03T04:54:54.417Z,12.57
2023-05-03T04:57:21.281Z,13.18
2023-05-03T04:59:48.187Z,13.23
2023-05-03T05:02:14.879Z,15.80
2023-05-03T05:04:41.676Z,20.30
2023-05-03T05:07:08.470Z,15.18
2023-05-03T05:09:35.276Z,16.42
2023-05-03T05:12:02.069Z,16.27
2023-05-03T05:14:30.846Z,15.70
2023-05-03T05:16:58.588Z,18.95
2023-05-03T05:19:25.488Z,17.38
2023-05-03T05:21:52.787Z,16.10
2023-05-03T05:24:19.661Z,21.85
2023-05-03T05:26:46.501Z,15.83
2023-05-03T05:29:13.334Z,17.00
2023-05-03T05:31:40.170Z,20.67
2023-05-03T05:34:07.201Z,20.40
2023-05-03T05:36:34.008Z,30.07
2023-05-03T05:39:00.778Z,19.00
2023-05-03T05:41:27.596Z,21.63
2023-05-03T05:43:54.407Z,21.90
2023-05-03T05:46:21.563Z,19.83
2023-05-03T05:48:48.590Z,20.60
2023-05-03T05:51:15.559Z,26.50
2023-05-03T05:53:42.279Z,21.13
2023-05-03T05:56:09.166Z,21.10
2023-05-03T05:58:37.525Z,24.50
2023-05-03T06:01:05.560Z,26.03
2023-05-03T06:03:33.464Z,25.60
2023-05-03T06:06:01.016Z,22.60
2023-05-03T06:08:28.077Z,20.83
2023-05-03T06:10:55.144Z,20.40
2023-05-03T06:13:22.787Z,26.13
2023-05-03T06:15:49.564Z,23.87
2023-05-03T06:18:16.645Z,18.90
2023-05-03T06:20:43.486Z,22.70
2023-05-03T06:23:10.490Z,18.80
2023-05-03T06:25:37.363Z,27.77
2023-05-03T06:28:04.656Z,24.53
2023-05-03T06:30:31.596Z,21.77
2023-05-03T06:32:58.314Z,19.47
2023-05-03T06:35:25.130Z,24.83
2023-05-03T06:37:52.064Z,21.03
2023-05-03T06:40:19.097Z,17.87
2023-05-03T06:42:46.327Z,18.50
2023-05-03T06:45:13.152Z,21.20
2023-05-03T06:47:42.522Z,19.47
2023-05-03T06:50:10.546Z,17.53
2023-05-03T06:52:37.398Z,19.00
2023-05-03T06:55:04.970Z,16.80
2023-05-03T06:57:31.957Z,17.37
2023-05-03T06:59:58.823Z,25.43
2023-05-03T07:02:26.754Z,18.33
2023-05-03T07:04:54.006Z,17.43
2023-05-03T07:07:21.143Z,19.20
2023-05-03T07:09:48.176Z,16.23
2023-05-03T07:12:16.597Z,16.83
2023-05-03T07:14:43.600Z,18.40
2023-05-03T07:17:10.392Z,18.70
2023-05-03T07:19:39.591Z,19.20
2023-05-03T07:22:06.332Z,23.50
2023-05-03T07:24:33.080Z,25.23
2023-05-03T07:27:00.025Z,22.67
2023-05-03T07:29:27.421Z,22.77
2023-05-03T07:31:54.477Z,24.40
2023-05-03T07:34:21.620Z,19.87
2023-05-03T07:36:48.389Z,21.00
2023-05-03T07:39:15.219Z,18.97
2023-05-03T07:41:41.993Z,18.30
2023-05-03T07:44:08.803Z,16.00
2023-05-03T07:46:35.821Z,16.13
2023-05-03T07:49:06.242Z,15.90
2023-05-03T07:51:37.105Z,18.80
2023-05-03T07:54:04.324Z,17.20
2023-05-03T07:56:31.745Z,18.10
2023-05-03T07:59:08.127Z,20.00
2023-05-03T08:01:36.636Z,16.07
2023-05-03T08:04:03.621Z,19.73
2023-05-03T08:06:31.812Z,15.73
2023-05-03T08:08:58.819Z,16.83
2023-05-03T08:11:27.731Z,12.90
2023-05-03T08:13:54.556Z,15.20
2023-05-03T08:16:21.542Z,12.20
2023-05-03T08:18:48.408Z,16.47
2023-05-03T08:21:16.840Z,16.87
2023-05-03T08:23:43.583Z,14.73
2023-05-03T08:26:10.969Z,14.03
2023-05-03T08:28:38.040Z,17.63
2023-05-03T08:31:05.062Z,18.13
2023-05-03T08:33:32.074Z,18.50
2023-05-03T08:35:58.974Z,16.97
2023-05-03T08:38:26.455Z,14.43
2023-05-03T08:40:58.175Z,11.73
2023-05-03T08:43:28.241Z,13.63
2023-05-03T08:45:55.169Z,14.33
2023-05-03T08:48:22.294Z,10.40
2023-05-03T08:50:51.733Z,14.57
2023-05-03T08:53:18.659Z,11.60
2023-05-03T08:55:45.717Z,12.70
2023-05-03T08:58:13.652Z,11.50
2023-05-03T09:00:44.884Z,12.80
2023-05-03T09:03:12.333Z,11.50
2023-05-03T09:05:40.555Z,14.70
2023-05-03T09:08:09.151Z,11.63
2023-05-03T09:10:41.145Z,11.20
2023-05-03T09:13:09.789Z,10.87
2023-05-03T09:15:37.222Z,10.83
2023-05-03T09:18:17.325Z,10.17
2023-05-03T09:20:52.608Z,11.53
2023-05-03T09:23:25.561Z,12.20
2023-05-03T09:25:52.598Z,9.60
2023-05-03T09:28:20.136Z,9.20
2023-05-03T09:30:48.764Z,10.20
2023-05-03T09:33:23.045Z,10.23
2023-05-03T09:36:00.573Z,9.00
2023-05-03T09:38:32.714Z,9.73
2023-05-03T09:40:59.820Z,8.90
2023-05-03T09:43:26.748Z,10.00
2023-05-03T09:46:07.136Z,7.70
2023-05-03T09:48:34.009Z,10.77
2023-05-03T09:51:00.996Z,11.57
2023-05-03T09:53:28.567Z,9.37
2023-05-03T09:55:56.739Z,7.80
2023-05-03T09:58:25.835Z,11.40
2023-05-03T10:00:53.911Z,9.87
2023-05-03T10:03:43.892Z,11.23
2023-05-03T10:06:31.945Z,11.00
2023-05-03T10:09:20.607Z,8.63
2023-05-03T10:11:51.728Z,9.87
2023-05-03T10:14:21.148Z,9.97
2023-05-03T10:16:58.261Z,10.30
2023-05-03T10:19:39.903Z,10.80
2023-05-03T10:22:08.663Z,8.60
2023-05-03T10:24:36.968Z,10.20
2023-05-03T10:27:07.749Z,10.77
2023-05-03T10:29:53.711Z,10.33
2023-05-03T10:32:43.386Z,11.43
2023-05-03T10:35:13.978Z,9.90
2023-05-03T10:37:42.651Z,8.00
2023-05-03T10:40:14.215Z,11.07
2023-05-03T10:42:57.105Z,8.07
2023-05-03T10:45:31.604Z,9.17
2023-05-03T10:48:13.307Z,8.93
2023-05-03T10:50:40.465Z,7.30
2023-05-03T10:53:07.673Z,7.17
2023-05-03T10:55:34.578Z,8.60
2023-05-03T10:58:02.010Z,8.07
2023-05-03T11:00:44.609Z,7.07
2023-05-03T11:03:20.253Z,8.23
2023-05-03T11:05:48.217Z,8.13
2023-05-03T11:08:20.408Z,8.10
2023-05-03T11:10:51.417Z,6.93
2023-05-03T11:13:18.255Z,8.60
2023-05-03T11:15:47.670Z,9.67
2023-05-03T11:18:15.160Z,5.33
2023-05-03T11:20:42.286Z,7.37
2023-05-03T11:23:11.468Z,7.60
2023-05-03T11:25:38.725Z,6.90
2023-05-03T11:28:05.952Z,7.67
2023-05-03T11:30:37.446Z,7.20
2023-05-03T11:33:04.580Z,5.70
2023-05-03T11:35:31.937Z,6.90
2023-05-03T11:37:59.169Z,6.07
2023-05-03T11:40:26.211Z,7.17
2023-05-03T11:42:58.353Z,5.90
2023-05-03T11:45:40.948Z,8.00
2023-05-03T11:48:08.615Z,8.07
2023-05-03T11:50:47.552Z,5.10
2023-05-03T11:53:15.621Z,5.30
2023-05-03T11:55:43.768Z,5.03
2023-05-03T11:58:27.158Z,5.60
2023-05-03T12:00:56.009Z,5.00
2023-05-03T12:03:28.982Z,6.50
2023-05-03T12:05:59.618Z,6.97
2023-05-03T12:08:34.284Z,5.27
2023-05-03T12:11:03.830Z,5.20
2023-05-03T12:13:38.871Z,5.57
2023-05-03T12:16:12.560Z,7.67
2023-05-03T12:19:02.656Z,5.60
2023-05-03T12:22:04.668Z,5.20
2023-05-03T12:24:39.141Z,4.40
2023-05-03T12:27:08.583Z,8.10
2023-05-03T12:29:35.998Z,5.27
2023-05-03T12:32:03.679Z,3.43
2023-05-03T12:34:35.637Z,4.40
2023-05-03T12:37:05.281Z,5.50
2023-05-03T12:39:33.265Z,4.60
2023-05-03T12:44:48.367Z,5.00
2023-05-03T12:47:16.863Z,4.20
2023-05-03T12:49:54.167Z,5.50
2023-05-03T12:55:02.712Z,5.83
2023-05-03T12:57:32.219Z,4.93
2023-05-03T13:00:03.679Z,5.63
2023-05-03T13:05:01.796Z,5.10
2023-05-03T13:07:31.781Z,10.50
2023-05-03T13:12:30.981Z,7.23
2023-05-03T13:14:57.959Z,9.60
2023-05-03T13:17:25.042Z,4.50
2023-05-03T13:19:52.502Z,4.80
2023-05-03T13:22:19.568Z,5.50
2023-05-03T13:24:47.889Z,7.20
2023-05-03T13:27:16.119Z,6.77
2023-05-03T13:29:43.184Z,5.47
2023-05-03T13:32:10.637Z,5.33
2023-05-03T13:34:37.553Z,5.93
2023-05-03T13:37:04.700Z,7.60
2023-05-03T13:39:32.081Z,5.20
2023-05-03T13:41:59.019Z,4.47
2023-05-03T13:44:26.194Z,4.87
2023-05-03T13:46:53.505Z,5.10
2023-05-03T13:49:20.776Z,7.70
2023-05-03T13:51:47.639Z,8.53
2023-05-03T13:54:14.596Z,8.70
2023-05-03T13:56:43.084Z,5.03
2023-05-03T13:59:13.886Z,8.37
2023-05-03T14:01:43.127Z,6.40
2023-05-03T14:04:10.358Z,7.90
2023-05-03T14:06:40.296Z,8.33
2023-05-03T14:09:08.875Z,4.67
2023-05-03T14:11:36.108Z,6.60
2023-05-03T14:14:03.260Z,6.10
2023-05-03T14:16:40.850Z,5.27
2023-05-03T14:19:12.407Z,5.40
2023-05-03T14:21:41.308Z,5.40
2023-05-03T14:24:08.351Z,6.40
2023-05-03T14:26:35.178Z,5.00
2023-05-03T14:29:02.052Z,6.07
2023-05-03T14:31:28.991Z,4.60
2023-05-03T14:33:55.884Z,6.03
2023-05-03T14:36:23.049Z,6.83
2023-05-03T14:38:49.865Z,6.30
2023-05-03T14:41:16.667Z,5.30
2023-05-03T14:43:43.350Z,4.47
2023-05-03T14:46:10.442Z,4.53
2023-05-03T14:48:38.244Z,5.70
2023-05-03T14:51:05.562Z,4.23
2023-05-03T14:53:32.553Z,5.40
2023-05-03T14:55:59.619Z,5.30
2023-05-03T14:58:26.803Z,9.37
2023-05-03T15:00:53.760Z,8.50
2023-05-03T15:03:20.778Z,5.17
2023-05-03T15:05:49.486Z,6.13
2023-05-03T15:08:19.306Z,6.93
2023-05-03T15:10:47.801Z,6.63
2023-05-03T15:13:16.156Z,6.23
2023-05-03T15:15:43.769Z,6.30
2023-05-03T15:18:11.047Z,5.87
2023-05-03T15:20:38.748Z,6.30
2023-05-03T15:23:06.118Z,6.13
2023-05-03T15:25:33.119Z,5.50
2023-05-03T15:28:03.757Z,6.00
2023-05-03T15:30:32.255Z,6.40
2023-05-03T15:32:59.202Z,4.83
2023-05-03T15:35:26.010Z,5.17
2023-05-03T15:37:52.752Z,7.63
2023-05-03T15:40:23.766Z,7.80
2023-05-03T15:42:52.214Z,9.73
2023-05-03T15:45:19.460Z,9.93
2023-05-03T15:47:46.407Z,6.07
2023-05-03T15:50:13.558Z,7.23
2023-05-03T15:52:40.548Z,7.13
2023-05-03T15:55:09.521Z,6.17
2023-05-03T15:57:37.185Z,6.90
2023-05-03T16:00:09.254Z,5.77
2023-05-03T16:02:36.155Z,6.50
2023-05-03T16:05:03.061Z,9.47
2023-05-03T16:07:30.161Z,7.37
2023-05-03T16:09:57.079Z,6.90
2023-05-03T16:12:24.530Z,8.87
2023-05-03T16:14:51.386Z,8.37
2023-05-03T16:17:18.340Z,7.93
2023-05-03T16:19:45.095Z,10.93
2023-05-03T16:22:11.822Z,9.70
2023-05-03T16:24:38.739Z,6.37
2023-05-03T16:27:06.260Z,8.10
2023-05-03T16:29:34.931Z,9.30
2023-05-03T16:32:01.887Z,7.03
2023-05-03T16:34:28.727Z,8.10
2023-05-03T16:36:55.736Z,6.33
2023-05-03T16:39:22.694Z,7.47
2023-05-03T16:41:49.431Z,9.93
2023-05-03T16:44:18.570Z,7.33
2023-05-03T16:46:46.351Z,7.50
2023-05-03T16:49:13.307Z,12.20
2023-05-03T16:51:41.219Z,11.27
2023-05-03T16:54:08.054Z,8.00
2023-05-03T16:56:34.868Z,7.60
2023-05-03T16:59:02.945Z,7.40
2023-05-03T17:01:29.752Z,6.70
2023-05-03T17:03:56.924Z,5.83
2023-05-03T17:06:23.696Z,7.13
2023-05-03T17:08:50.528Z,9.20
2023-05-03T17:11:17.354Z,7.60
2023-05-03T17:13:44.480Z,16.23
2023-05-03T17:16:15.072Z,9.77
2023-05-03T17:18:42.376Z,7.80
2023-05-03T17:21:09.858Z,6.70
2023-05-03T17:23:38.419Z,9.73
2023-05-03T17:26:10.812Z,8.20
2023-05-03T17:28:37.955Z,6.97
2023-05-03T17:31:06.505Z,9.13
2023-05-03T17:33:34.408Z,5.63
2023-05-03T17:36:04.612Z,7.17
2023-05-03T17:38:32.811Z,6.37
2023-05-03T17:41:07.445Z,10.03
2023-05-03T17:43:38.059Z,5.80
2023-05-03T17:46:11.197Z,6.43
2023-05-03T17:48:40.428Z,9.57
2023-05-03T17:51:07.922Z,10.90
2023-05-03T17:53:34.939Z,8.60
2023-05-03T17:56:01.808Z,7.70
2023-05-03T17:58:28.579Z,20.40
2023-05-03T18:00:56.957Z,7.00
2023-05-03T18:03:24.211Z,7.30
2023-05-03T18:05:51.086Z,14.03
2023-05-03T18:08:17.890Z,8.47
2023-05-03T18:10:45.007Z,6.03
2023-05-03T18:13:12.676Z,4.80
2023-05-03T18:15:41.736Z,9.90
2023-05-03T18:18:08.963Z,6.90
2023-05-03T18:20:35.895Z,6.60
2023-05-03T18:23:02.710Z,7.63
2023-05-03T18:25:29.834Z,8.73
2023-05-03T18:27:57.339Z,5.57
2023-05-03T18:30:29.064Z,11.90
2023-05-03T18:32:56.330Z,7.33
2023-05-03T18:35:23.546Z,6.37
2023-05-03T18:37:50.425Z,5.70
2023-05-03T18:40:17.364Z,6.27
2023-05-03T18:42:44.194Z,4.90
2023-05-03T18:45:11.779Z,5.47
2023-05-03T18:47:38.626Z,4.40
2023-05-03T18:50:06.271Z,5.00
2023-05-03T18:52:33.182Z,8.47
2023-05-03T18:55:00.015Z,3.57
2023-05-03T18:57:27.294Z,6.63
2023-05-03T19:00:01.004Z,6.30
2023-05-03T19:02:31.172Z,5.37
2023-05-03T19:04:58.792Z,8.10
2023-05-03T19:07:25.659Z,7.10
2023-05-03T19:09:56.321Z,6.03
2023-05-03T19:12:23.520Z,4.70
2023-05-03T19:14:50.491Z,5.80
2023-05-03T19:17:17.328Z,6.10
2023-05-03T19:19:44.111Z,5.77
2023-05-03T19:22:10.956Z,5.30
2023-05-03T19:24:37.816Z,6.00
2023-05-03T19:27:04.741Z,5.80
2023-05-03T19:29:32.452Z,6.60
2023-05-03T19:31:59.170Z,19.50
2023-05-03T19:34:26.151Z,7.27
2023-05-03T19:36:52.851Z,8.90
2023-05-03T19:39:19.801Z,6.37
2023-05-03T19:41:47.403Z,6.03
2023-05-03T19:44:14.154Z,6.97
2023-05-03T19:46:41.158Z,8.37
2023-05-03T19:49:07.943Z,9.03
2023-05-03T19:51:34.754Z,7.33
2023-05-03T19:54:05.166Z,7.83
2023-05-03T19:56:31.930Z,9.43
2023-05-03T19:58:58.768Z,14.60
2023-05-03T20:01:25.644Z,11.50
2023-05-03T20:03:53.910Z,6.53
2023-05-03T20:06:22.149Z,6.07
2023-05-03T20:08:50.984Z,8.73
2023-05-03T20:11:19.696Z,9.77
2023-05-03T20:13:46.876Z,5.33
2023-05-03T20:16:13.704Z,6.53
2023-05-03T20:18:42.040Z,5.90
2023-05-03T20:21:09.568Z,6.67
2023-05-03T20:23:36.376Z,7.30
2023-05-03T20:26:03.071Z,8.37
2023-05-03T20:28:31.945Z,8.63
2023-05-03T20:30:58.734Z,4.80
2023-05-03T20:33:25.574Z,6.37
2023-05-03T20:35:52.522Z,5.63
2023-05-03T20:38:19.742Z,6.10
2023-05-03T20:40:46.536Z,6.53
2023-05-03T20:43:13.380Z,10.20
2023-05-03T20:45:40.107Z,9.00
2023-05-03T20:48:08.117Z,8.00
2023-05-03T20:50:35.014Z,6.80
2023-05-03T20:53:01.825Z,10.40
2023-05-03T20:55:28.577Z,5.00
2023-05-03T20:57:55.363Z,11.33
2023-05-03T21:00:22.281Z,9.50
2023-05-03T21:02:54.295Z,9.60
2023-05-03T21:05:24.129Z,6.13
2023-05-03T21:07:51.558Z,9.73
2023-05-03T21:10:18.499Z,8.03
2023-05-03T21:12:45.395Z,7.70
2023-05-03T21:15:12.264Z,8.70
2023-05-03T21:17:39.166Z,8.20
2023-05-03T21:20:06.687Z,6.60
2023-05-03T21:22:33.542Z,7.77
2023-05-03T21:25:00.326Z,21.47
2023-05-03T21:27:27.074Z,9.30
2023-05-03T21:29:53.813Z,7.00
2023-05-03T21:32:20.648Z,9.60
2023-05-03T21:34:47.445Z,9.93
2023-05-03T21:37:14.119Z,11.20
2023-05-03T21:39:40.879Z,9.17
2023-05-03T21:42:07.628Z,7.70
2023-05-03T21:44:34.324Z,9.43
2023-05-03T21:47:01.814Z,7.33
2023-05-03T21:49:28.555Z,6.23
2023-05-03T21:51:55.281Z,8.07
2023-05-03T21:54:22.062Z,6.40
2023-05-03T21:56:48.727Z,9.07
2023-05-03T21:59:15.642Z,6.97
2023-05-03T22:01:42.403Z,8.47
2023-05-03T22:04:09.256Z,7.50
2023-05-03T22:06:36.100Z,15.23
2023-05-03T22:09:02.878Z,6.93
2023-05-03T22:11:29.747Z,6.50
2023-05-03T22:14:07.541Z,9.30
2023-05-03T22:16:37.697Z,6.00
2023-05-03T22:19:05.411Z,8.67
2023-05-03T22:21:32.556Z,8.70
2023-05-03T22:23:59.352Z,11.60
2023-05-03T22:26:26.083Z,10.33
2023-05-03T22:28:53.972Z,10.60
2023-05-03T22:31:20.771Z,9.20
2023-05-03T22:33:48.816Z,9.43
2023-05-03T22:36:15.566Z,8.73
2023-05-03T22:38:43.185Z,8.50
2023-05-03T22:41:10.355Z,12.90
2023-05-03T22:43:37.168Z,6.93
2023-05-03T22:46:04.186Z,13.97
2023-05-03T22:48:32.468Z,10.47
2023-05-03T22:50:59.727Z,7.60
2023-05-03T22:53:26.623Z,9.10
2023-05-03T22:56:01.485Z,8.83
2023-05-03T22:58:28.778Z,8.53
2023-05-03T23:00:56.498Z,9.77
2023-05-03T23:03:23.608Z,8.03
2023-05-03T23:05:52.715Z,8.57
2023-05-03T23:08:20.377Z,11.53
2023-05-03T23:10:47.369Z,7.33
2023-05-03T23:13:14.560Z,7.60
2023-05-03T23:15:41.587Z,7.27
2023-05-03T23:18:08.627Z,13.27
2023-05-03T23:20:35.523Z,10.73
2023-05-03T23:23:02.296Z,8.97
2023-05-03T23:25:29.693Z,7.50
2023-05-03T23:27:56.641Z,7.73
2023-05-03T23:30:24.024Z,9.60
2023-05-03T23:32:51.463Z,9.20
2023-05-03T23:35:19.111Z,10.50
2023-05-03T23:37:45.958Z,8.93
2023-05-03T23:40:12.963Z,9.73
2023-05-03T23:42:41.272Z,11.53
2023-05-03T23:45:09.656Z,11.90
2023-05-03T23:47:37.093Z,11.17
2023-05-03T23:50:04.561Z,8.00
2023-05-03T23:52:31.559Z,9.63
2023-05-03T23:54:58.372Z,9.67
2023-05-03T23:57:25.269Z,10.20
2023-05-03T23:59:52.010Z,9.10
